world map with URE marked

URE - Airport

This information may not be accurate or current and is not valid for navigation or flight planning. No warranty of fitness for any purpose is made or implied.

flag of Estonia

Donate via PayPal

Additional information is available on the NEW Great Circle Mapper

Location
City:  Kuressaare, Estonia
ICAO / IATA:EEKE / URE

Details
Type:Airport (Aerodrome, Airfield)
Latitude:58°13'48"N (58.229883)
Longitude:22°30'34"E (22.509494)
Datum:WGS 1984
Elevation:14 ft (4 m)
Runways:2
Longest:4980 × 98 ft (1518 × 30 m)

Time
Timezone:UTC+2 (DST+5)
Local Time:

Weather
METAR:EEKE  041350Z 30008KT 260V360 9999 BKN016 M02/M05 Q1020 R17/190095

Related Locations
Nearby:
Farthest:CHT: 11147 mi / 17940 km
Waitangi [Tuuta], CIT, NZ

Find:

   beyond  
but within

Other Information
Maps:
Sources:

  


 


Great Circle Mapper   Great Circle Mapper
Great Circle Mapper FAQ   Great Circle Mapper FAQ
  Karl's Home Page
KLSē   KLSē Home
   GC on Facebook
Airlines of the World   Airlines of the World
Donate via PayPal


Copyright © 2004-2022, Karl L. Swartz. All rights reserved.
All trademarks mentioned herein belong to their respective owners.

Please see credits for attribution and copyright information.

Karl Swartz <karl@kls2.com>
  Powered by FreeBSD
Valid HTML 4.01!
Labeled with ICRA
hCard Microformat
Geo Microformat